Terminal Aerodrome Forecast
Issued by NWS

Home | Current Version | Previous Version | Text Only | Print | Product List | Glossary On
Versions: 1 2 3 4 5 6 7 8 9 10 11 12 13 14 15 16
000
FTUS46 KLOX 281730
TAFLGB
TAF
KLGB 281730Z 2818/2918 21007KT P6SM SKC
     FM282200 24007KT P6SM SKC
     FM290200 29008KT P6SM SKC
     FM290600 VRB03KT P6SM SKC
     FM290800 VRB03KT P6SM OVC008
     FM291100 VRB03KT 4SM BR OVC005=

USA.gov is the U.S. government's official web portal to all federal, state and local government web resources and services.